sensor_id;sensor_type;location;lat;lon;timestamp;P1;durP1;ratioP1;P2;durP2;ratioP2
43552;SDS011;29153;42.696;23.218;2023-12-20T00:01:29;15.30;;;6.72;;
43552;SDS011;29153;42.696;23.218;2023-12-20T00:03:56;17.02;;;7.75;;
43552;SDS011;29153;42.696;23.218;2023-12-20T00:06:24;13.08;;;7.30;;
43552;SDS011;29153;42.696;23.218;2023-12-20T00:08:51;16.00;;;7.53;;
43552;SDS011;29153;42.696;23.218;2023-12-20T00:11:19;15.85;;;6.78;;
43552;SDS011;29153;42.696;23.218;2023-12-20T00:13:46;16.45;;;7.35;;
43552;SDS011;29153;42.696;23.218;2023-12-20T00:16:14;12.88;;;6.67;;
43552;SDS011;29153;42.696;23.218;2023-12-20T00:18:41;14.73;;;7.25;;
43552;SDS011;29153;42.696;23.218;2023-12-20T00:21:09;18.62;;;7.42;;
43552;SDS011;29153;42.696;23.218;2023-12-20T00:23:36;15.75;;;7.97;;
43552;SDS011;29153;42.696;23.218;2023-12-20T00:26:03;17.17;;;7.62;;
43552;SDS011;29153;42.696;23.218;2023-12-20T00:28:31;18.40;;;7.65;;
43552;SDS011;29153;42.696;23.218;2023-12-20T00:30:58;17.35;;;7.75;;
43552;SDS011;29153;42.696;23.218;2023-12-20T00:33:26;14.75;;;7.30;;
43552;SDS011;29153;42.696;23.218;2023-12-20T00:35:53;14.05;;;6.95;;
43552;SDS011;29153;42.696;23.218;2023-12-20T00:38:21;17.07;;;8.35;;
43552;SDS011;29153;42.696;23.218;2023-12-20T00:40:48;17.25;;;7.65;;
43552;SDS011;29153;42.696;23.218;2023-12-20T00:43:16;18.23;;;8.05;;
43552;SDS011;29153;42.696;23.218;2023-12-20T00:45:43;16.27;;;8.88;;
43552;SDS011;29153;42.696;23.218;2023-12-20T00:48:11;15.93;;;7.25;;
43552;SDS011;29153;42.696;23.218;2023-12-20T00:50:38;16.27;;;7.05;;
43552;SDS011;29153;42.696;23.218;2023-12-20T00:53:06;14.00;;;7.22;;
43552;SDS011;29153;42.696;23.218;2023-12-20T00:55:33;14.23;;;7.35;;
43552;SDS011;29153;42.696;23.218;2023-12-20T00:58:01;14.98;;;7.08;;
43552;SDS011;29153;42.696;23.218;2023-12-20T01:00:28;14.55;;;7.62;;
43552;SDS011;29153;42.696;23.218;2023-12-20T01:02:56;13.93;;;7.17;;
43552;SDS011;29153;42.696;23.218;2023-12-20T01:05:23;16.97;;;7.45;;
43552;SDS011;29153;42.696;23.218;2023-12-20T01:07:51;17.85;;;7.70;;
43552;SDS011;29153;42.696;23.218;2023-12-20T01:10:18;16.77;;;7.03;;
43552;SDS011;29153;42.696;23.218;2023-12-20T01:12:46;14.10;;;7.83;;
43552;SDS011;29153;42.696;23.218;2023-12-20T01:15:13;15.35;;;7.55;;
43552;SDS011;29153;42.696;23.218;2023-12-20T01:17:41;18.65;;;7.42;;
43552;SDS011;29153;42.696;23.218;2023-12-20T01:20:08;17.37;;;7.33;;
43552;SDS011;29153;42.696;23.218;2023-12-20T01:22:36;17.20;;;7.87;;
43552;SDS011;29153;42.696;23.218;2023-12-20T01:25:03;15.88;;;7.03;;
43552;SDS011;29153;42.696;23.218;2023-12-20T01:27:32;14.83;;;7.80;;
43552;SDS011;29153;42.696;23.218;2023-12-20T01:29:59;14.70;;;7.67;;
43552;SDS011;29153;42.696;23.218;2023-12-20T01:32:27;15.85;;;8.38;;
43552;SDS011;29153;42.696;23.218;2023-12-20T01:34:55;18.48;;;8.53;;
43552;SDS011;29153;42.696;23.218;2023-12-20T01:37:22;17.07;;;8.40;;
43552;SDS011;29153;42.696;23.218;2023-12-20T01:39:51;19.80;;;8.35;;
43552;SDS011;29153;42.696;23.218;2023-12-20T01:42:18;15.10;;;7.47;;
43552;SDS011;29153;42.696;23.218;2023-12-20T01:44:45;13.58;;;7.55;;
43552;SDS011;29153;42.696;23.218;2023-12-20T01:47:13;16.70;;;7.62;;
43552;SDS011;29153;42.696;23.218;2023-12-20T01:49:41;18.02;;;8.83;;
43552;SDS011;29153;42.696;23.218;2023-12-20T01:52:08;18.52;;;8.43;;
43552;SDS011;29153;42.696;23.218;2023-12-20T01:54:36;13.58;;;7.42;;
43552;SDS011;29153;42.696;23.218;2023-12-20T01:57:05;16.05;;;8.20;;
43552;SDS011;29153;42.696;23.218;2023-12-20T01:59:33;19.42;;;8.60;;
43552;SDS011;29153;42.696;23.218;2023-12-20T02:02:02;17.20;;;8.88;;
43552;SDS011;29153;42.696;23.218;2023-12-20T02:04:30;17.37;;;8.53;;
43552;SDS011;29153;42.696;23.218;2023-12-20T02:06:58;17.45;;;8.13;;
43552;SDS011;29153;42.696;23.218;2023-12-20T02:09:26;18.73;;;8.90;;
43552;SDS011;29153;42.696;23.218;2023-12-20T02:11:54;18.80;;;7.72;;
43552;SDS011;29153;42.696;23.218;2023-12-20T02:14:21;21.35;;;7.65;;
43552;SDS011;29153;42.696;23.218;2023-12-20T02:16:49;14.78;;;7.50;;
43552;SDS011;29153;42.696;23.218;2023-12-20T02:19:16;16.50;;;7.60;;
43552;SDS011;29153;42.696;23.218;2023-12-20T02:21:46;14.70;;;7.65;;
43552;SDS011;29153;42.696;23.218;2023-12-20T02:24:13;17.27;;;8.58;;
43552;SDS011;29153;42.696;23.218;2023-12-20T02:29:09;17.80;;;7.72;;
43552;SDS011;29153;42.696;23.218;2023-12-20T02:31:37;19.20;;;7.92;;
43552;SDS011;29153;42.696;23.218;2023-12-20T02:34:04;17.70;;;8.20;;
43552;SDS011;29153;42.696;23.218;2023-12-20T02:36:32;18.12;;;8.53;;
43552;SDS011;29153;42.696;23.218;2023-12-20T02:38:59;16.82;;;9.05;;
43552;SDS011;29153;42.696;23.218;2023-12-20T02:41:27;19.32;;;9.13;;
43552;SDS011;29153;42.696;23.218;2023-12-20T02:43:54;21.75;;;9.83;;
43552;SDS011;29153;42.696;23.218;2023-12-20T02:46:22;17.98;;;9.33;;
43552;SDS011;29153;42.696;23.218;2023-12-20T02:48:50;18.30;;;8.63;;
43552;SDS011;29153;42.696;23.218;2023-12-20T02:51:17;20.10;;;9.08;;
43552;SDS011;29153;42.696;23.218;2023-12-20T02:53:45;21.25;;;9.90;;
43552;SDS011;29153;42.696;23.218;2023-12-20T02:56:12;15.55;;;8.48;;
43552;SDS011;29153;42.696;23.218;2023-12-20T02:58:40;17.40;;;8.80;;
43552;SDS011;29153;42.696;23.218;2023-12-20T03:01:07;21.80;;;9.48;;
43552;SDS011;29153;42.696;23.218;2023-12-20T03:03:35;17.90;;;8.35;;
43552;SDS011;29153;42.696;23.218;2023-12-20T03:06:02;17.90;;;8.58;;
43552;SDS011;29153;42.696;23.218;2023-12-20T03:08:30;20.37;;;9.58;;
43552;SDS011;29153;42.696;23.218;2023-12-20T03:10:59;16.02;;;8.38;;
43552;SDS011;29153;42.696;23.218;2023-12-20T03:13:26;15.13;;;7.67;;
43552;SDS011;29153;42.696;23.218;2023-12-20T03:15:54;16.70;;;9.18;;
43552;SDS011;29153;42.696;23.218;2023-12-20T03:18:21;17.48;;;8.48;;
43552;SDS011;29153;42.696;23.218;2023-12-20T03:20:49;20.25;;;8.75;;
43552;SDS011;29153;42.696;23.218;2023-12-20T03:23:16;20.65;;;8.73;;
43552;SDS011;29153;42.696;23.218;2023-12-20T03:25:44;18.17;;;8.63;;
43552;SDS011;29153;42.696;23.218;2023-12-20T03:28:14;18.70;;;7.92;;
43552;SDS011;29153;42.696;23.218;2023-12-20T03:30:41;18.90;;;9.43;;
43552;SDS011;29153;42.696;23.218;2023-12-20T03:33:09;16.55;;;8.50;;
43552;SDS011;29153;42.696;23.218;2023-12-20T03:35:36;16.32;;;8.33;;
43552;SDS011;29153;42.696;23.218;2023-12-20T03:38:04;20.02;;;8.90;;
43552;SDS011;29153;42.696;23.218;2023-12-20T03:40:31;19.87;;;9.00;;
43552;SDS011;29153;42.696;23.218;2023-12-20T03:42:59;24.05;;;9.65;;
43552;SDS011;29153;42.696;23.218;2023-12-20T03:45:26;20.20;;;9.38;;
43552;SDS011;29153;42.696;23.218;2023-12-20T03:47:54;25.95;;;10.40;;
43552;SDS011;29153;42.696;23.218;2023-12-20T03:50:22;21.00;;;10.75;;
43552;SDS011;29153;42.696;23.218;2023-12-20T03:52:49;21.07;;;10.40;;
43552;SDS011;29153;42.696;23.218;2023-12-20T03:55:17;18.35;;;8.80;;
43552;SDS011;29153;42.696;23.218;2023-12-20T03:57:45;20.25;;;10.30;;
43552;SDS011;29153;42.696;23.218;2023-12-20T04:00:12;21.30;;;10.55;;
43552;SDS011;29153;42.696;23.218;2023-12-20T04:02:41;21.35;;;9.30;;
43552;SDS011;29153;42.696;23.218;2023-12-20T04:05:09;25.05;;;10.60;;
43552;SDS011;29153;42.696;23.218;2023-12-20T04:07:37;22.67;;;10.95;;
43552;SDS011;29153;42.696;23.218;2023-12-20T04:10:04;27.00;;;11.05;;
43552;SDS011;29153;42.696;23.218;2023-12-20T04:12:32;24.82;;;11.33;;
43552;SDS011;29153;42.696;23.218;2023-12-20T04:14:59;23.52;;;10.38;;
43552;SDS011;29153;42.696;23.218;2023-12-20T04:17:29;26.27;;;11.28;;
43552;SDS011;29153;42.696;23.218;2023-12-20T04:19:56;25.50;;;11.15;;
43552;SDS011;29153;42.696;23.218;2023-12-20T04:22:24;25.90;;;12.55;;
43552;SDS011;29153;42.696;23.218;2023-12-20T04:24:51;26.02;;;12.35;;
43552;SDS011;29153;42.696;23.218;2023-12-20T04:27:18;26.20;;;11.35;;
43552;SDS011;29153;42.696;23.218;2023-12-20T04:29:46;23.38;;;10.63;;
43552;SDS011;29153;42.696;23.218;2023-12-20T04:32:13;25.15;;;10.93;;
43552;SDS011;29153;42.696;23.218;2023-12-20T04:34:41;24.45;;;11.50;;
43552;SDS011;29153;42.696;23.218;2023-12-20T04:37:08;25.45;;;11.35;;
43552;SDS011;29153;42.696;23.218;2023-12-20T04:39:36;29.92;;;11.95;;
43552;SDS011;29153;42.696;23.218;2023-12-20T04:42:03;20.12;;;10.05;;
43552;SDS011;29153;42.696;23.218;2023-12-20T04:44:31;20.48;;;10.20;;
43552;SDS011;29153;42.696;23.218;2023-12-20T04:46:59;20.32;;;10.15;;
43552;SDS011;29153;42.696;23.218;2023-12-20T04:49:26;23.55;;;10.78;;
43552;SDS011;29153;42.696;23.218;2023-12-20T04:51:54;20.17;;;10.58;;
43552;SDS011;29153;42.696;23.218;2023-12-20T04:54:22;25.75;;;10.58;;
43552;SDS011;29153;42.696;23.218;2023-12-20T04:56:49;20.85;;;10.00;;
43552;SDS011;29153;42.696;23.218;2023-12-20T04:59:17;20.80;;;9.55;;
43552;SDS011;29153;42.696;23.218;2023-12-20T05:01:44;22.87;;;10.25;;
43552;SDS011;29153;42.696;23.218;2023-12-20T05:04:11;20.62;;;9.08;;
43552;SDS011;29153;42.696;23.218;2023-12-20T05:06:39;24.55;;;10.80;;
43552;SDS011;29153;42.696;23.218;2023-12-20T05:09:06;21.10;;;9.53;;
43552;SDS011;29153;42.696;23.218;2023-12-20T05:11:34;23.18;;;10.20;;
43552;SDS011;29153;42.696;23.218;2023-12-20T05:14:02;18.00;;;8.80;;
43552;SDS011;29153;42.696;23.218;2023-12-20T05:16:29;20.17;;;9.53;;
43552;SDS011;29153;42.696;23.218;2023-12-20T05:18:57;18.60;;;9.75;;
43552;SDS011;29153;42.696;23.218;2023-12-20T05:23:53;15.75;;;8.15;;
43552;SDS011;29153;42.696;23.218;2023-12-20T05:26:20;20.52;;;9.55;;
43552;SDS011;29153;42.696;23.218;2023-12-20T05:28:48;21.12;;;10.35;;
43552;SDS011;29153;42.696;23.218;2023-12-20T05:31:15;21.95;;;10.38;;
43552;SDS011;29153;42.696;23.218;2023-12-20T05:33:42;21.27;;;9.10;;
43552;SDS011;29153;42.696;23.218;2023-12-20T05:36:10;21.57;;;10.70;;
43552;SDS011;29153;42.696;23.218;2023-12-20T05:38:39;17.70;;;9.50;;
43552;SDS011;29153;42.696;23.218;2023-12-20T05:41:07;24.82;;;11.03;;
43552;SDS011;29153;42.696;23.218;2023-12-20T05:43:34;25.75;;;10.35;;
43552;SDS011;29153;42.696;23.218;2023-12-20T05:46:01;27.25;;;10.03;;
43552;SDS011;29153;42.696;23.218;2023-12-20T05:48:29;22.00;;;9.85;;
43552;SDS011;29153;42.696;23.218;2023-12-20T05:50:57;24.92;;;10.72;;
43552;SDS011;29153;42.696;23.218;2023-12-20T05:53:24;22.00;;;10.85;;
43552;SDS011;29153;42.696;23.218;2023-12-20T05:55:52;22.70;;;10.82;;
43552;SDS011;29153;42.696;23.218;2023-12-20T05:58:20;22.02;;;9.83;;
43552;SDS011;29153;42.696;23.218;2023-12-20T06:00:47;23.40;;;10.68;;
43552;SDS011;29153;42.696;23.218;2023-12-20T06:03:15;18.52;;;11.05;;
43552;SDS011;29153;42.696;23.218;2023-12-20T06:05:42;20.90;;;10.78;;
43552;SDS011;29153;42.696;23.218;2023-12-20T06:08:10;20.37;;;10.10;;
43552;SDS011;29153;42.696;23.218;2023-12-20T06:10:37;24.02;;;10.25;;
43552;SDS011;29153;42.696;23.218;2023-12-20T06:13:05;20.50;;;9.58;;
43552;SDS011;29153;42.696;23.218;2023-12-20T06:15:33;18.62;;;9.85;;
43552;SDS011;29153;42.696;23.218;2023-12-20T06:18:01;23.62;;;9.83;;
43552;SDS011;29153;42.696;23.218;2023-12-20T06:20:28;23.25;;;10.00;;
43552;SDS011;29153;42.696;23.218;2023-12-20T06:22:56;23.85;;;10.78;;
43552;SDS011;29153;42.696;23.218;2023-12-20T06:25:23;30.77;;;10.90;;
43552;SDS011;29153;42.696;23.218;2023-12-20T06:27:51;21.57;;;11.12;;
43552;SDS011;29153;42.696;23.218;2023-12-20T06:30:19;27.62;;;11.15;;
43552;SDS011;29153;42.696;23.218;2023-12-20T06:32:46;20.55;;;9.43;;
43552;SDS011;29153;42.696;23.218;2023-12-20T06:35:13;23.57;;;10.53;;
43552;SDS011;29153;42.696;23.218;2023-12-20T06:37:41;19.77;;;10.85;;
43552;SDS011;29153;42.696;23.218;2023-12-20T06:40:09;21.20;;;10.13;;
43552;SDS011;29153;42.696;23.218;2023-12-20T06:42:37;22.80;;;10.10;;
43552;SDS011;29153;42.696;23.218;2023-12-20T06:45:05;26.75;;;12.18;;
43552;SDS011;29153;42.696;23.218;2023-12-20T06:47:32;27.82;;;12.28;;
43552;SDS011;29153;42.696;23.218;2023-12-20T06:50:00;28.70;;;13.13;;
43552;SDS011;29153;42.696;23.218;2023-12-20T06:52:27;26.00;;;13.98;;
43552;SDS011;29153;42.696;23.218;2023-12-20T06:54:55;30.23;;;14.05;;
43552;SDS011;29153;42.696;23.218;2023-12-20T06:57:22;28.32;;;14.33;;
43552;SDS011;29153;42.696;23.218;2023-12-20T06:59:51;30.12;;;14.83;;
43552;SDS011;29153;42.696;23.218;2023-12-20T07:02:19;32.80;;;15.20;;
43552;SDS011;29153;42.696;23.218;2023-12-20T07:04:48;30.40;;;16.00;;
43552;SDS011;29153;42.696;23.218;2023-12-20T07:07:15;37.90;;;20.20;;
43552;SDS011;29153;42.696;23.218;2023-12-20T07:09:43;58.80;;;29.57;;
43552;SDS011;29153;42.696;23.218;2023-12-20T07:12:10;104.20;;;43.98;;
43552;SDS011;29153;42.696;23.218;2023-12-20T07:14:38;100.30;;;45.23;;
43552;SDS011;29153;42.696;23.218;2023-12-20T07:17:05;84.97;;;40.50;;
43552;SDS011;29153;42.696;23.218;2023-12-20T07:22:01;66.47;;;33.60;;
43552;SDS011;29153;42.696;23.218;2023-12-20T07:24:29;69.85;;;35.45;;
43552;SDS011;29153;42.696;23.218;2023-12-20T07:26:56;75.47;;;39.08;;
43552;SDS011;29153;42.696;23.218;2023-12-20T07:29:24;82.88;;;40.73;;
43552;SDS011;29153;42.696;23.218;2023-12-20T07:31:57;88.67;;;39.03;;
43552;SDS011;29153;42.696;23.218;2023-12-20T07:34:21;78.30;;;38.88;;
43552;SDS011;29153;42.696;23.218;2023-12-20T07:36:48;76.02;;;38.80;;
43552;SDS011;29153;42.696;23.218;2023-12-20T07:39:15;58.15;;;30.37;;
43552;SDS011;29153;42.696;23.218;2023-12-20T07:41:44;75.10;;;34.48;;
43552;SDS011;29153;42.696;23.218;2023-12-20T07:44:11;64.03;;;29.20;;
43552;SDS011;29153;42.696;23.218;2023-12-20T07:46:39;31.95;;;13.83;;
43552;SDS011;29153;42.696;23.218;2023-12-20T07:49:06;41.08;;;13.10;;
43552;SDS011;29153;42.696;23.218;2023-12-20T07:51:35;47.53;;;14.38;;
43552;SDS011;29153;42.696;23.218;2023-12-20T07:54:03;39.35;;;13.80;;
43552;SDS011;29153;42.696;23.218;2023-12-20T07:56:31;52.60;;;16.37;;
43552;SDS011;29153;42.696;23.218;2023-12-20T07:58:58;39.08;;;15.53;;
43552;SDS011;29153;42.696;23.218;2023-12-20T08:01:27;39.60;;;13.28;;
43552;SDS011;29153;42.696;23.218;2023-12-20T08:03:54;30.90;;;11.25;;
43552;SDS011;29153;42.696;23.218;2023-12-20T08:06:22;49.18;;;13.50;;
43552;SDS011;29153;42.696;23.218;2023-12-20T08:08:50;42.00;;;15.43;;
43552;SDS011;29153;42.696;23.218;2023-12-20T08:11:17;41.35;;;15.80;;
43552;SDS011;29153;42.696;23.218;2023-12-20T08:13:45;42.85;;;15.05;;
43552;SDS011;29153;42.696;23.218;2023-12-20T08:16:12;41.98;;;15.80;;
43552;SDS011;29153;42.696;23.218;2023-12-20T08:18:41;37.48;;;15.15;;
43552;SDS011;29153;42.696;23.218;2023-12-20T08:21:08;49.55;;;15.40;;
43552;SDS011;29153;42.696;23.218;2023-12-20T08:23:37;49.93;;;17.65;;
43552;SDS011;29153;42.696;23.218;2023-12-20T08:26:05;44.50;;;17.07;;
43552;SDS011;29153;42.696;23.218;2023-12-20T08:28:33;48.60;;;19.52;;
43552;SDS011;29153;42.696;23.218;2023-12-20T08:31:01;51.60;;;17.80;;
43552;SDS011;29153;42.696;23.218;2023-12-20T08:33:28;58.75;;;15.58;;
43552;SDS011;29153;42.696;23.218;2023-12-20T08:35:56;49.38;;;19.40;;
43552;SDS011;29153;42.696;23.218;2023-12-20T08:38:23;49.40;;;16.45;;
43552;SDS011;29153;42.696;23.218;2023-12-20T08:40:51;65.05;;;16.75;;
43552;SDS011;29153;42.696;23.218;2023-12-20T08:43:18;72.85;;;20.50;;
43552;SDS011;29153;42.696;23.218;2023-12-20T08:45:46;49.35;;;16.87;;
43552;SDS011;29153;42.696;23.218;2023-12-20T08:48:13;53.00;;;17.52;;
43552;SDS011;29153;42.696;23.218;2023-12-20T08:50:41;73.07;;;24.10;;
43552;SDS011;29153;42.696;23.218;2023-12-20T08:53:09;90.75;;;32.08;;
43552;SDS011;29153;42.696;23.218;2023-12-20T08:55:37;58.20;;;23.70;;
43552;SDS011;29153;42.696;23.218;2023-12-20T08:58:04;59.98;;;20.68;;
43552;SDS011;29153;42.696;23.218;2023-12-20T09:00:33;63.35;;;22.22;;
43552;SDS011;29153;42.696;23.218;2023-12-20T09:03:01;69.10;;;26.25;;
43552;SDS011;29153;42.696;23.218;2023-12-20T09:05:29;63.80;;;25.40;;
43552;SDS011;29153;42.696;23.218;2023-12-20T09:07:57;62.30;;;25.55;;
43552;SDS011;29153;42.696;23.218;2023-12-20T09:10:25;69.12;;;31.40;;
43552;SDS011;29153;42.696;23.218;2023-12-20T09:12:52;67.97;;;29.02;;
43552;SDS011;29153;42.696;23.218;2023-12-20T09:15:28;77.95;;;28.75;;
43552;SDS011;29153;42.696;23.218;2023-12-20T09:17:51;57.95;;;24.47;;
43552;SDS011;29153;42.696;23.218;2023-12-20T09:20:19;58.80;;;24.55;;
43552;SDS011;29153;42.696;23.218;2023-12-20T09:22:49;67.97;;;26.80;;
43552;SDS011;29153;42.696;23.218;2023-12-20T09:25:16;84.17;;;33.58;;
43552;SDS011;29153;42.696;23.218;2023-12-20T09:27:44;142.30;;;57.58;;
43552;SDS011;29153;42.696;23.218;2023-12-20T09:30:12;130.57;;;52.80;;
43552;SDS011;29153;42.696;23.218;2023-12-20T09:32:40;105.07;;;43.20;;
43552;SDS011;29153;42.696;23.218;2023-12-20T09:35:07;94.83;;;38.00;;
43552;SDS011;29153;42.696;23.218;2023-12-20T09:37:35;73.83;;;29.55;;
43552;SDS011;29153;42.696;23.218;2023-12-20T09:40:03;75.95;;;32.25;;
43552;SDS011;29153;42.696;23.218;2023-12-20T09:45:20;104.03;;;40.03;;
43552;SDS011;29153;42.696;23.218;2023-12-20T09:47:53;88.47;;;36.05;;
43552;SDS011;29153;42.696;23.218;2023-12-20T09:50:19;93.80;;;38.00;;
43552;SDS011;29153;42.696;23.218;2023-12-20T09:52:51;75.65;;;33.13;;
43552;SDS011;29153;42.696;23.218;2023-12-20T09:55:21;67.12;;;29.18;;
43552;SDS011;29153;42.696;23.218;2023-12-20T09:57:51;65.40;;;27.98;;
43552;SDS011;29153;42.696;23.218;2023-12-20T10:00:21;70.25;;;31.82;;
43552;SDS011;29153;42.696;23.218;2023-12-20T10:02:57;103.22;;;39.53;;
43552;SDS011;29153;42.696;23.218;2023-12-20T10:05:31;71.87;;;29.65;;
43552;SDS011;29153;42.696;23.218;2023-12-20T10:08:04;65.30;;;29.25;;
43552;SDS011;29153;42.696;23.218;2023-12-20T10:10:37;75.00;;;30.90;;
43552;SDS011;29153;42.696;23.218;2023-12-20T10:13:09;68.00;;;32.25;;
43552;SDS011;29153;42.696;23.218;2023-12-20T10:15:38;74.35;;;32.20;;
43552;SDS011;29153;42.696;23.218;2023-12-20T10:18:06;74.97;;;32.65;;
43552;SDS011;29153;42.696;23.218;2023-12-20T10:20:34;101.33;;;42.50;;
43552;SDS011;29153;42.696;23.218;2023-12-20T10:23:02;83.33;;;36.68;;
43552;SDS011;29153;42.696;23.218;2023-12-20T10:25:29;95.70;;;39.00;;
43552;SDS011;29153;42.696;23.218;2023-12-20T10:28:08;116.10;;;46.28;;
43552;SDS011;29153;42.696;23.218;2023-12-20T10:30:37;129.47;;;51.88;;
43552;SDS011;29153;42.696;23.218;2023-12-20T10:33:10;122.00;;;48.58;;
43552;SDS011;29153;42.696;23.218;2023-12-20T10:35:37;111.72;;;46.33;;
43552;SDS011;29153;42.696;23.218;2023-12-20T10:38:06;88.45;;;40.15;;
43552;SDS011;29153;42.696;23.218;2023-12-20T10:43:02;92.45;;;41.68;;
43552;SDS011;29153;42.696;23.218;2023-12-20T10:45:31;98.52;;;45.23;;
43552;SDS011;29153;42.696;23.218;2023-12-20T10:47:58;103.27;;;43.75;;
43552;SDS011;29153;42.696;23.218;2023-12-20T10:50:28;99.87;;;46.70;;
43552;SDS011;29153;42.696;23.218;2023-12-20T10:52:56;103.40;;;47.15;;
43552;SDS011;29153;42.696;23.218;2023-12-20T10:55:25;99.25;;;45.92;;
43552;SDS011;29153;42.696;23.218;2023-12-20T10:58:00;112.15;;;50.75;;
43552;SDS011;29153;42.696;23.218;2023-12-20T11:00:23;125.47;;;53.17;;
43552;SDS011;29153;42.696;23.218;2023-12-20T11:02:51;116.00;;;53.48;;
43552;SDS011;29153;42.696;23.218;2023-12-20T11:05:22;125.78;;;56.90;;
43552;SDS011;29153;42.696;23.218;2023-12-20T11:11:04;122.53;;;58.63;;
43552;SDS011;29153;42.696;23.218;2023-12-20T11:13:40;127.22;;;56.80;;
43552;SDS011;29153;42.696;23.218;2023-12-20T11:16:22;114.50;;;53.08;;
43552;SDS011;29153;42.696;23.218;2023-12-20T11:18:51;132.70;;;58.98;;
43552;SDS011;29153;42.696;23.218;2023-12-20T11:21:18;126.47;;;54.27;;
43552;SDS011;29153;42.696;23.218;2023-12-20T11:23:47;120.40;;;55.25;;
43552;SDS011;29153;42.696;23.218;2023-12-20T11:26:22;115.32;;;53.70;;
43552;SDS011;29153;42.696;23.218;2023-12-20T11:28:48;111.32;;;51.08;;
43552;SDS011;29153;42.696;23.218;2023-12-20T11:31:16;108.75;;;52.13;;
43552;SDS011;29153;42.696;23.218;2023-12-20T11:33:44;119.87;;;53.87;;
43552;SDS011;29153;42.696;23.218;2023-12-20T11:36:14;120.13;;;53.02;;
43552;SDS011;29153;42.696;23.218;2023-12-20T11:38:56;123.42;;;55.50;;
43552;SDS011;29153;42.696;23.218;2023-12-20T11:41:25;129.78;;;57.65;;
43552;SDS011;29153;42.696;23.218;2023-12-20T11:43:53;136.57;;;62.45;;
43552;SDS011;29153;42.696;23.218;2023-12-20T11:46:22;149.18;;;67.55;;
43552;SDS011;29153;42.696;23.218;2023-12-20T11:48:49;146.85;;;67.75;;
43552;SDS011;29153;42.696;23.218;2023-12-20T11:51:18;152.68;;;68.60;;
43552;SDS011;29153;42.696;23.218;2023-12-20T11:53:50;133.72;;;58.42;;
43552;SDS011;29153;42.696;23.218;2023-12-20T11:56:16;129.82;;;60.85;;
43552;SDS011;29153;42.696;23.218;2023-12-20T11:58:43;143.50;;;64.95;;
43552;SDS011;29153;42.696;23.218;2023-12-20T12:01:11;130.20;;;59.67;;
43552;SDS011;29153;42.696;23.218;2023-12-20T12:03:39;139.70;;;60.60;;
43552;SDS011;29153;42.696;23.218;2023-12-20T12:08:35;148.72;;;61.77;;
43552;SDS011;29153;42.696;23.218;2023-12-20T12:11:03;136.90;;;62.90;;
43552;SDS011;29153;42.696;23.218;2023-12-20T12:13:31;108.45;;;46.23;;
43552;SDS011;29153;42.696;23.218;2023-12-20T12:15:58;98.22;;;42.27;;
43552;SDS011;29153;42.696;23.218;2023-12-20T12:18:26;104.38;;;39.55;;
43552;SDS011;29153;42.696;23.218;2023-12-20T12:20:59;99.87;;;37.95;;
43552;SDS011;29153;42.696;23.218;2023-12-20T12:23:28;113.65;;;48.30;;
43552;SDS011;29153;42.696;23.218;2023-12-20T12:25:56;100.80;;;40.63;;
43552;SDS011;29153;42.696;23.218;2023-12-20T12:28:25;116.15;;;46.60;;
43552;SDS011;29153;42.696;23.218;2023-12-20T12:30:58;136.80;;;53.17;;
43552;SDS011;29153;42.696;23.218;2023-12-20T12:33:26;117.72;;;49.98;;
43552;SDS011;29153;42.696;23.218;2023-12-20T12:35:54;124.18;;;49.53;;
43552;SDS011;29153;42.696;23.218;2023-12-20T12:38:22;112.20;;;48.02;;
43552;SDS011;29153;42.696;23.218;2023-12-20T12:40:51;121.92;;;49.53;;
43552;SDS011;29153;42.696;23.218;2023-12-20T12:43:19;144.02;;;59.93;;
43552;SDS011;29153;42.696;23.218;2023-12-20T12:45:48;146.57;;;58.42;;
43552;SDS011;29153;42.696;23.218;2023-12-20T12:48:16;142.13;;;54.65;;
43552;SDS011;29153;42.696;23.218;2023-12-20T12:50:43;143.32;;;60.12;;
43552;SDS011;29153;42.696;23.218;2023-12-20T12:53:12;133.20;;;51.55;;
43552;SDS011;29153;42.696;23.218;2023-12-20T12:55:39;134.10;;;53.58;;
43552;SDS011;29153;42.696;23.218;2023-12-20T12:58:07;127.70;;;51.00;;
43552;SDS011;29153;42.696;23.218;2023-12-20T13:00:34;131.85;;;51.18;;
43552;SDS011;29153;42.696;23.218;2023-12-20T13:03:02;138.03;;;55.17;;
43552;SDS011;29153;42.696;23.218;2023-12-20T13:05:29;135.12;;;56.37;;
43552;SDS011;29153;42.696;23.218;2023-12-20T13:07:57;147.55;;;58.05;;
43552;SDS011;29153;42.696;23.218;2023-12-20T13:10:24;157.47;;;60.55;;
43552;SDS011;29153;42.696;23.218;2023-12-20T13:12:52;131.12;;;51.15;;
43552;SDS011;29153;42.696;23.218;2023-12-20T13:15:19;113.97;;;44.27;;
43552;SDS011;29153;42.696;23.218;2023-12-20T13:17:47;126.10;;;47.05;;
43552;SDS011;29153;42.696;23.218;2023-12-20T13:20:14;116.75;;;44.35;;
43552;SDS011;29153;42.696;23.218;2023-12-20T13:22:42;111.85;;;42.60;;
43552;SDS011;29153;42.696;23.218;2023-12-20T13:25:09;109.25;;;40.85;;
43552;SDS011;29153;42.696;23.218;2023-12-20T13:27:37;117.15;;;43.78;;
43552;SDS011;29153;42.696;23.218;2023-12-20T13:30:05;117.90;;;43.70;;
43552;SDS011;29153;42.696;23.218;2023-12-20T13:32:33;137.47;;;50.78;;
43552;SDS011;29153;42.696;23.218;2023-12-20T13:35:01;149.53;;;50.73;;
43552;SDS011;29153;42.696;23.218;2023-12-20T13:37:30;155.25;;;55.48;;
43552;SDS011;29153;42.696;23.218;2023-12-20T13:39:57;153.47;;;55.67;;
43552;SDS011;29153;42.696;23.218;2023-12-20T13:42:25;180.87;;;51.60;;
43552;SDS011;29153;42.696;23.218;2023-12-20T13:44:53;177.53;;;51.42;;
43552;SDS011;29153;42.696;23.218;2023-12-20T13:47:21;200.95;;;66.70;;
43552;SDS011;29153;42.696;23.218;2023-12-20T13:49:48;168.35;;;55.17;;
43552;SDS011;29153;42.696;23.218;2023-12-20T13:52:16;190.82;;;62.73;;
43552;SDS011;29153;42.696;23.218;2023-12-20T13:54:44;183.03;;;64.05;;
43552;SDS011;29153;42.696;23.218;2023-12-20T13:57:11;231.68;;;66.02;;
43552;SDS011;29153;42.696;23.218;2023-12-20T13:59:39;219.97;;;56.48;;
43552;SDS011;29153;42.696;23.218;2023-12-20T14:02:06;209.25;;;57.35;;
43552;SDS011;29153;42.696;23.218;2023-12-20T14:04:34;213.28;;;55.12;;
43552;SDS011;29153;42.696;23.218;2023-12-20T14:07:01;189.55;;;55.58;;
43552;SDS011;29153;42.696;23.218;2023-12-20T14:09:29;191.85;;;52.83;;
43552;SDS011;29153;42.696;23.218;2023-12-20T14:11:56;155.03;;;52.30;;
43552;SDS011;29153;42.696;23.218;2023-12-20T14:14:24;176.68;;;55.23;;
43552;SDS011;29153;42.696;23.218;2023-12-20T14:16:52;165.90;;;52.75;;
43552;SDS011;29153;42.696;23.218;2023-12-20T14:19:19;162.53;;;50.55;;
43552;SDS011;29153;42.696;23.218;2023-12-20T14:21:46;147.65;;;49.33;;
43552;SDS011;29153;42.696;23.218;2023-12-20T14:24:14;144.53;;;49.58;;
43552;SDS011;29153;42.696;23.218;2023-12-20T14:26:41;135.60;;;48.87;;
43552;SDS011;29153;42.696;23.218;2023-12-20T14:29:09;119.47;;;47.45;;
43552;SDS011;29153;42.696;23.218;2023-12-20T14:31:36;133.60;;;49.25;;